createdAt,value
2022-11-04T00:01:07.667Z,15.57
2022-11-04T00:03:37.283Z,15.25
2022-11-04T00:06:07.521Z,15.32
2022-11-04T00:08:37.258Z,16.10
2022-11-04T00:11:24.832Z,17.73
2022-11-04T00:13:54.744Z,16.27
2022-11-04T00:16:42.827Z,17.30
2022-11-04T00:19:12.787Z,15.60
2022-11-04T00:21:59.332Z,16.85
2022-11-04T00:24:46.098Z,15.93
2022-11-04T00:27:33.937Z,14.23
2022-11-04T00:30:04.012Z,13.43
2022-11-04T00:32:52.787Z,15.48
2022-11-04T00:35:23.198Z,14.23
2022-11-04T00:37:52.513Z,15.18
2022-11-04T00:40:22.692Z,14.07
2022-11-04T00:42:52.003Z,14.30
2022-11-04T00:45:22.382Z,15.77
2022-11-04T00:47:53.157Z,13.30
2022-11-04T00:50:23.092Z,15.85
2022-11-04T00:52:52.527Z,13.48
2022-11-04T00:55:22.015Z,15.50
2022-11-04T00:57:52.039Z,12.93
2022-11-04T01:00:21.832Z,13.57
2022-11-04T01:02:53.157Z,15.03
2022-11-04T01:05:22.457Z,13.10
2022-11-04T01:07:52.763Z,14.23
2022-11-04T01:10:22.184Z,12.30
2022-11-04T01:12:55.266Z,13.33
2022-11-04T01:15:25.120Z,12.65
2022-11-04T01:17:56.806Z,12.40
2022-11-04T01:20:26.634Z,13.88
2022-11-04T01:22:56.911Z,13.18
2022-11-04T01:25:26.268Z,12.02
2022-11-04T01:27:58.031Z,11.73
2022-11-04T01:30:27.590Z,12.20
2022-11-04T01:32:59.334Z,11.88
2022-11-04T01:37:59.378Z,10.77
2022-11-04T01:40:29.178Z,12.20
2022-11-04T01:42:59.588Z,12.68
2022-11-04T01:45:28.966Z,10.88
2022-11-04T01:48:05.986Z,11.60
2022-11-04T01:50:38.402Z,10.90
2022-11-04T01:53:11.840Z,10.43
2022-11-04T01:55:45.199Z,10.48
2022-11-04T01:58:19.897Z,10.75
2022-11-04T02:00:49.919Z,9.80
2022-11-04T02:03:25.497Z,9.05
2022-11-04T02:05:55.766Z,10.38
2022-11-04T02:11:00.222Z,9.43
2022-11-04T02:13:31.139Z,9.43
2022-11-04T02:16:10.462Z,9.80
2022-11-04T02:19:01.928Z,9.50
2022-11-04T02:22:12.584Z,10.55
2022-11-04T02:25:02.873Z,9.85
2022-11-04T02:27:52.515Z,9.65
2022-11-04T02:30:24.409Z,10.15
2022-11-04T02:33:14.474Z,10.77
2022-11-04T02:35:54.125Z,10.30
2022-11-04T02:38:32.207Z,9.43
2022-11-04T02:41:11.569Z,10.02
2022-11-04T02:43:53.880Z,9.82
2022-11-04T02:46:33.201Z,9.18
2022-11-04T02:49:10.106Z,9.85
2022-11-04T02:51:46.570Z,9.30
2022-11-04T02:54:21.514Z,9.88
2022-11-04T02:56:54.119Z,9.25
2022-11-04T02:59:32.142Z,9.65
2022-11-04T03:02:07.727Z,9.93
2022-11-04T03:04:42.176Z,10.18
2022-11-04T03:07:16.828Z,9.88
2022-11-04T03:09:51.743Z,10.00
2022-11-04T03:12:27.415Z,10.23
2022-11-04T03:15:01.370Z,9.77
2022-11-04T03:17:37.014Z,9.77
2022-11-04T03:20:11.800Z,10.73
2022-11-04T03:22:42.434Z,10.98
2022-11-04T03:25:12.677Z,11.23
2022-11-04T03:27:47.967Z,10.45
2022-11-04T03:30:19.738Z,10.45
2022-11-04T03:32:59.395Z,10.75
2022-11-04T03:35:30.243Z,11.60
2022-11-04T03:38:00.812Z,10.88
2022-11-04T03:40:30.290Z,10.63
2022-11-04T03:43:05.547Z,11.35
2022-11-04T03:45:35.095Z,10.20
2022-11-04T03:48:07.079Z,12.63
2022-11-04T03:50:43.004Z,10.05
2022-11-04T03:53:14.801Z,9.85
2022-11-04T03:55:53.626Z,9.38
2022-11-04T03:58:35.228Z,10.27
2022-11-04T04:01:11.310Z,9.23
2022-11-04T04:03:48.361Z,9.52
2022-11-04T04:06:21.078Z,9.80
2022-11-04T04:08:55.244Z,10.77
2022-11-04T04:11:32.609Z,9.38
2022-11-04T04:14:07.202Z,10.25
2022-11-04T04:16:40.703Z,10.27
2022-11-04T04:19:15.465Z,9.57
2022-11-04T04:21:48.358Z,9.45
2022-11-04T04:24:38.965Z,10.55
2022-11-04T04:27:25.423Z,9.50
2022-11-04T04:29:55.958Z,9.05
2022-11-04T04:32:27.710Z,9.57
2022-11-04T04:35:13.185Z,9.65
2022-11-04T04:37:44.288Z,10.73
2022-11-04T04:40:36.223Z,9.45
2022-11-04T04:43:23.235Z,9.43
2022-11-04T04:45:55.356Z,8.18
2022-11-04T04:48:25.778Z,8.82
2022-11-04T04:53:31.540Z,8.35
2022-11-04T04:56:01.362Z,9.35
2022-11-04T04:58:30.608Z,9.18
2022-11-04T05:01:00.605Z,9.32
2022-11-04T05:03:30.050Z,9.63
2022-11-04T05:06:03.196Z,11.00
2022-11-04T05:08:32.430Z,9.65
2022-11-04T05:11:02.578Z,8.52
2022-11-04T05:13:31.817Z,8.10
2022-11-04T05:16:07.541Z,7.90
2022-11-04T05:18:36.933Z,9.02
2022-11-04T05:21:10.894Z,9.50
2022-11-04T05:23:40.519Z,8.40
2022-11-04T05:26:10.558Z,8.98
2022-11-04T05:28:40.165Z,9.05
2022-11-04T05:31:09.877Z,9.07
2022-11-04T05:33:39.428Z,9.20
2022-11-04T05:36:12.859Z,9.57
2022-11-04T05:38:43.029Z,11.02
2022-11-04T05:41:26.072Z,9.57
2022-11-04T05:43:56.227Z,9.90
2022-11-04T05:46:26.391Z,10.60
2022-11-04T05:48:56.360Z,9.35
2022-11-04T05:51:29.678Z,9.13
2022-11-04T05:53:58.936Z,9.60
2022-11-04T05:56:28.955Z,9.10
2022-11-04T05:58:58.194Z,10.35
2022-11-04T06:01:34.185Z,10.27
2022-11-04T06:04:04.417Z,9.52
2022-11-04T06:06:39.182Z,9.95
2022-11-04T06:09:08.644Z,9.02
2022-11-04T06:11:39.127Z,9.15
2022-11-04T06:14:08.640Z,9.30
2022-11-04T06:16:38.589Z,9.18
2022-11-04T06:19:09.738Z,9.27
2022-11-04T06:21:44.911Z,9.13
2022-11-04T06:24:14.467Z,8.88
2022-11-04T06:26:44.627Z,10.00
2022-11-04T06:29:14.244Z,10.65
2022-11-04T06:31:43.843Z,9.40
2022-11-04T06:34:13.084Z,9.30
2022-11-04T06:36:44.456Z,8.43
2022-11-04T06:39:14.301Z,8.45
2022-11-04T06:41:45.514Z,9.27
2022-11-04T06:44:16.896Z,9.10
2022-11-04T06:46:47.391Z,9.95
2022-11-04T06:49:19.370Z,9.90
2022-11-04T06:51:51.047Z,8.25
2022-11-04T06:54:20.660Z,9.50
2022-11-04T06:56:51.316Z,9.18
2022-11-04T06:59:24.258Z,9.38
2022-11-04T07:01:54.154Z,9.77
2022-11-04T07:04:23.770Z,10.23
2022-11-04T07:06:54.906Z,9.98
2022-11-04T07:09:24.293Z,9.73
2022-11-04T07:11:53.960Z,10.18
2022-11-04T07:14:23.211Z,9.85
2022-11-04T07:16:53.164Z,9.60
2022-11-04T07:19:22.652Z,9.07
2022-11-04T07:21:54.139Z,9.30
2022-11-04T07:24:23.564Z,9.13
2022-11-04T07:26:55.723Z,9.43
2022-11-04T07:29:25.723Z,10.10
2022-11-04T07:31:55.884Z,8.93
2022-11-04T07:34:25.316Z,8.20
2022-11-04T07:36:56.941Z,9.60
2022-11-04T07:41:59.469Z,9.30
2022-11-04T07:44:29.136Z,8.88
2022-11-04T07:46:59.436Z,9.70
2022-11-04T07:49:28.778Z,10.75
2022-11-04T07:52:00.607Z,10.07
2022-11-04T07:54:30.482Z,10.30
2022-11-04T07:57:00.358Z,10.52
2022-11-04T07:59:29.905Z,11.13
2022-11-04T08:02:00.385Z,10.40
2022-11-04T08:04:30.242Z,10.02
2022-11-04T08:07:01.670Z,11.13
2022-11-04T08:09:30.992Z,11.25
2022-11-04T08:12:01.180Z,9.90
2022-11-04T08:14:30.411Z,9.95
2022-11-04T08:17:00.410Z,9.73
2022-11-04T08:19:29.710Z,11.65
2022-11-04T08:22:01.058Z,10.30
2022-11-04T08:24:30.308Z,10.07
2022-11-04T08:27:00.440Z,11.15
2022-11-04T08:29:30.120Z,11.73
2022-11-04T08:31:59.768Z,10.88
2022-11-04T08:34:29.029Z,10.75
2022-11-04T08:37:00.495Z,11.85
2022-11-04T08:39:31.486Z,11.23
2022-11-04T08:42:01.466Z,11.13
2022-11-04T08:44:30.971Z,11.00
2022-11-04T08:47:01.127Z,11.05
2022-11-04T08:49:30.669Z,9.75
2022-11-04T08:52:02.183Z,10.65
2022-11-04T08:54:32.888Z,11.05
2022-11-04T08:57:03.116Z,11.30
2022-11-04T08:59:32.579Z,11.55
2022-11-04T09:02:03.195Z,9.95
2022-11-04T09:04:32.855Z,11.00
2022-11-04T09:07:08.228Z,10.63
2022-11-04T09:09:39.887Z,8.73
2022-11-04T09:12:12.252Z,9.23
2022-11-04T09:14:41.539Z,9.07
2022-11-04T09:17:11.468Z,9.65
2022-11-04T09:19:40.943Z,9.00
2022-11-04T09:22:10.603Z,7.50
2022-11-04T09:24:41.569Z,8.95
2022-11-04T09:27:11.775Z,8.48
2022-11-04T09:29:41.553Z,8.27
2022-11-04T09:32:11.796Z,8.02
2022-11-04T09:34:41.242Z,8.48
2022-11-04T09:37:11.387Z,7.95
2022-11-04T09:39:42.064Z,9.75
2022-11-04T09:42:40.075Z,7.68
2022-11-04T09:45:21.876Z,7.80
2022-11-04T09:47:55.070Z,8.25
2022-11-04T09:50:26.958Z,7.68
2022-11-04T09:53:03.356Z,8.63
2022-11-04T09:55:42.037Z,8.45
2022-11-04T09:58:15.161Z,7.70
2022-11-04T10:00:49.952Z,6.72
2022-11-04T10:03:33.779Z,7.85
2022-11-04T10:06:17.340Z,8.75
2022-11-04T10:09:03.351Z,7.68
2022-11-04T10:11:39.872Z,7.68
2022-11-04T10:14:35.308Z,9.45
2022-11-04T10:17:19.388Z,7.90
2022-11-04T10:20:02.582Z,7.10
2022-11-04T10:22:35.671Z,8.30
2022-11-04T10:25:13.739Z,7.45
2022-11-04T10:27:47.359Z,8.15
2022-11-04T10:30:19.842Z,8.52
2022-11-04T10:33:00.122Z,7.72
2022-11-04T10:35:34.790Z,8.10
2022-11-04T10:38:18.069Z,7.18
2022-11-04T10:40:50.328Z,7.32
2022-11-04T10:43:30.235Z,8.18
2022-11-04T10:46:12.852Z,7.60
2022-11-04T10:48:49.499Z,6.90
2022-11-04T10:51:22.509Z,8.38
2022-11-04T10:53:56.732Z,7.53
2022-11-04T10:56:37.374Z,7.32
2022-11-04T10:59:23.630Z,7.90
2022-11-04T11:01:55.312Z,7.47
2022-11-04T11:04:30.424Z,8.70
2022-11-04T11:07:01.990Z,9.15
2022-11-04T11:09:33.638Z,7.78
2022-11-04T11:12:29.464Z,7.35
2022-11-04T11:14:58.412Z,7.10
2022-11-04T11:17:39.083Z,7.55
2022-11-04T11:20:21.880Z,8.50
2022-11-04T11:22:54.434Z,7.20
2022-11-04T11:25:27.348Z,8.10
2022-11-04T11:28:00.554Z,7.97
2022-11-04T11:30:34.197Z,7.97
2022-11-04T11:33:08.892Z,7.97
2022-11-04T11:35:42.836Z,7.53
2022-11-04T11:38:20.900Z,7.95
2022-11-04T11:41:22.851Z,8.02
2022-11-04T11:43:46.188Z,8.05
2022-11-04T11:46:24.252Z,8.02
2022-11-04T11:49:01.416Z,8.85
2022-11-04T11:51:33.637Z,7.53
2022-11-04T11:54:19.259Z,8.32
2022-11-04T11:57:12.733Z,7.68
2022-11-04T12:02:47.272Z,7.20
2022-11-04T12:11:24.085Z,7.78
2022-11-04T12:13:57.554Z,8.60
2022-11-04T12:16:37.928Z,8.25
2022-11-04T12:19:35.275Z,8.52
2022-11-04T12:22:15.351Z,8.52
2022-11-04T12:24:55.511Z,8.77
2022-11-04T12:27:35.715Z,7.63
2022-11-04T12:30:13.097Z,8.88
2022-11-04T12:32:54.174Z,8.75
2022-11-04T12:35:40.041Z,8.57
2022-11-04T12:38:33.790Z,8.25
2022-11-04T12:41:37.504Z,9.57
2022-11-04T12:44:09.816Z,8.15
2022-11-04T12:46:47.413Z,8.30
2022-11-04T12:49:48.422Z,10.02
2022-11-04T12:52:39.633Z,8.73
2022-11-04T12:55:28.872Z,7.55
2022-11-04T12:58:11.753Z,8.60
2022-11-04T13:00:45.787Z,7.63
2022-11-04T13:03:20.300Z,7.65
2022-11-04T13:05:55.818Z,8.25
2022-11-04T13:08:30.673Z,7.53
2022-11-04T13:11:04.019Z,7.35
2022-11-04T13:13:38.089Z,7.78
2022-11-04T13:16:13.135Z,8.02
2022-11-04T13:18:43.594Z,8.02
2022-11-04T13:21:18.494Z,7.93
2022-11-04T13:23:57.577Z,8.32
2022-11-04T13:26:27.980Z,7.90
2022-11-04T13:29:08.296Z,8.88
2022-11-04T13:31:52.102Z,9.02
2022-11-04T13:34:36.586Z,9.00
2022-11-04T13:37:15.019Z,8.30
2022-11-04T13:39:49.100Z,8.02
2022-11-04T13:42:50.679Z,9.48
2022-11-04T13:45:22.024Z,9.65
2022-11-04T13:47:55.553Z,11.25
2022-11-04T13:50:37.010Z,8.75
2022-11-04T13:53:09.955Z,9.55
2022-11-04T13:55:51.010Z,8.70
2022-11-04T13:58:26.658Z,8.95
2022-11-04T14:01:27.979Z,10.00
2022-11-04T14:04:07.064Z,9.60
2022-11-04T14:06:52.772Z,8.65
2022-11-04T14:09:35.658Z,10.32
2022-11-04T14:12:37.152Z,9.93
2022-11-04T14:15:38.680Z,9.07
2022-11-04T14:18:29.048Z,9.20
2022-11-04T14:21:09.224Z,9.82
2022-11-04T14:23:39.916Z,8.55
2022-11-04T14:26:14.155Z,9.40
2022-11-04T14:28:46.987Z,10.30
2022-11-04T14:31:35.527Z,11.18
2022-11-04T14:34:06.145Z,10.13
2022-11-04T14:36:39.123Z,11.63
2022-11-04T14:39:26.993Z,12.40
2022-11-04T14:41:59.795Z,12.13
2022-11-04T14:44:34.539Z,11.45
2022-11-04T14:47:16.384Z,12.23
2022-11-04T14:49:49.429Z,11.90
2022-11-04T14:52:25.188Z,11.73
2022-11-04T14:54:59.065Z,12.07
2022-11-04T14:57:31.759Z,11.07
2022-11-04T15:00:19.763Z,11.05
2022-11-04T15:02:50.207Z,10.73
2022-11-04T15:05:33.637Z,11.43
2022-11-04T15:08:04.035Z,10.02
2022-11-04T15:10:33.503Z,11.43
2022-11-04T15:13:04.234Z,11.52
2022-11-04T15:15:44.751Z,10.37
2022-11-04T15:18:17.546Z,10.02
2022-11-04T15:20:52.793Z,11.75
2022-11-04T15:23:28.403Z,10.57
2022-11-04T15:25:59.264Z,11.60
2022-11-04T15:28:31.596Z,9.75
2022-11-04T15:31:06.573Z,10.75
2022-11-04T15:33:42.194Z,11.30
2022-11-04T15:36:16.427Z,10.40
2022-11-04T15:38:50.840Z,10.40
2022-11-04T15:41:40.671Z,11.70
2022-11-04T15:44:18.903Z,18.87
2022-11-04T15:46:52.815Z,26.20
2022-11-04T15:49:26.586Z,30.73
2022-11-04T15:52:00.339Z,29.77
2022-11-04T15:54:32.828Z,28.65
2022-11-04T15:57:07.167Z,27.75
2022-11-04T15:59:39.355Z,21.77
2022-11-04T16:02:24.991Z,21.30
2022-11-04T16:05:09.383Z,19.02
2022-11-04T16:07:40.179Z,16.08
2022-11-04T16:10:30.493Z,15.73
2022-11-04T16:13:01.388Z,14.93
2022-11-04T16:15:36.749Z,14.00
2022-11-04T16:18:20.726Z,14.05
2022-11-04T16:20:53.352Z,13.20
2022-11-04T16:23:25.106Z,12.85
2022-11-04T16:26:00.137Z,12.20
2022-11-04T16:28:31.792Z,11.57
2022-11-04T16:31:04.940Z,12.20
2022-11-04T16:33:35.859Z,12.00
2022-11-04T16:36:14.172Z,11.73
2022-11-04T16:38:43.435Z,12.50
2022-11-04T16:41:13.493Z,10.52
2022-11-04T16:43:44.504Z,11.02
2022-11-04T16:46:14.678Z,11.27
2022-11-04T16:48:45.800Z,10.05
2022-11-04T16:51:20.395Z,10.38
2022-11-04T16:53:51.586Z,10.15
2022-11-04T16:56:24.815Z,10.20
2022-11-04T16:58:54.636Z,11.00
2022-11-04T17:01:24.950Z,9.50
2022-11-04T17:03:55.925Z,10.15
2022-11-04T17:06:26.506Z,10.07
2022-11-04T17:08:56.694Z,10.13
2022-11-04T17:11:26.463Z,10.50
2022-11-04T17:13:56.055Z,10.68
2022-11-04T17:16:26.327Z,10.40
2022-11-04T17:18:57.069Z,11.73
2022-11-04T17:21:26.948Z,11.82
2022-11-04T17:23:57.333Z,10.65
2022-11-04T17:26:27.297Z,10.48
2022-11-04T17:28:56.562Z,10.50
2022-11-04T17:31:28.581Z,10.47
2022-11-04T17:33:59.416Z,11.07
2022-11-04T17:36:30.456Z,10.65
2022-11-04T17:38:59.924Z,10.15
2022-11-04T17:41:47.144Z,11.05
2022-11-04T17:44:16.849Z,11.05
2022-11-04T17:46:48.380Z,10.15
2022-11-04T17:49:21.233Z,10.63
2022-11-04T17:51:53.962Z,10.27
2022-11-04T17:54:24.539Z,10.38
2022-11-04T17:56:54.756Z,10.20
2022-11-04T17:59:24.569Z,9.27
2022-11-04T18:01:55.168Z,8.52
2022-11-04T18:04:26.060Z,9.52
2022-11-04T18:07:01.395Z,9.20
2022-11-04T18:09:33.039Z,9.73
2022-11-04T18:12:20.252Z,10.32
2022-11-04T18:14:49.680Z,9.75
2022-11-04T18:17:24.815Z,10.65
2022-11-04T18:19:55.648Z,9.80
2022-11-04T18:22:25.255Z,10.95
2022-11-04T18:24:54.792Z,10.77
2022-11-04T18:27:25.040Z,9.50
2022-11-04T18:29:54.290Z,10.98
2022-11-04T18:32:24.533Z,10.20
2022-11-04T18:34:55.257Z,10.27
2022-11-04T18:37:25.076Z,11.32
2022-11-04T18:39:54.910Z,11.93
2022-11-04T18:42:24.948Z,10.82
2022-11-04T18:44:54.997Z,10.15
2022-11-04T18:47:26.803Z,10.43
2022-11-04T18:49:57.779Z,10.77
2022-11-04T18:52:28.019Z,11.40
2022-11-04T18:54:57.541Z,10.80
2022-11-04T18:57:27.483Z,11.32
2022-11-04T18:59:57.056Z,10.85
2022-11-04T19:02:27.142Z,10.18
2022-11-04T19:04:58.003Z,11.63
2022-11-04T19:07:27.971Z,10.93
2022-11-04T19:09:57.210Z,9.77
2022-11-04T19:12:43.782Z,9.55
2022-11-04T19:15:13.514Z,9.65
2022-11-04T19:17:44.195Z,10.32
2022-11-04T19:20:16.708Z,9.13
2022-11-04T19:22:48.868Z,10.07
2022-11-04T19:25:19.048Z,10.38
2022-11-04T19:30:40.056Z,10.98
2022-11-04T19:33:11.013Z,10.32
2022-11-04T19:35:41.798Z,11.15
2022-11-04T19:38:12.017Z,10.82
2022-11-04T19:40:41.450Z,10.27
2022-11-04T19:43:10.261Z,12.00
2022-11-04T19:45:44.039Z,11.77
2022-11-04T19:48:14.692Z,11.07
2022-11-04T19:50:47.256Z,12.25
2022-11-04T19:53:17.568Z,11.00
2022-11-04T19:55:52.006Z,11.63
2022-11-04T19:58:23.405Z,11.68
2022-11-04T20:00:52.721Z,11.65
2022-11-04T20:03:23.240Z,12.97
2022-11-04T20:05:54.577Z,10.30
2022-11-04T20:08:24.747Z,11.32
2022-11-04T20:10:54.028Z,11.05
2022-11-04T20:13:41.364Z,11.13
2022-11-04T20:16:16.172Z,11.05
2022-11-04T20:18:47.336Z,10.10
2022-11-04T20:21:18.760Z,9.57
2022-11-04T20:23:49.194Z,11.27
2022-11-04T20:26:21.019Z,11.20
2022-11-04T20:28:51.159Z,10.38
2022-11-04T20:31:22.369Z,10.98
2022-11-04T20:33:54.129Z,10.20
2022-11-04T20:38:58.163Z,11.88
2022-11-04T20:41:28.075Z,10.27
2022-11-04T20:43:58.713Z,10.98
2022-11-04T20:46:29.353Z,12.90
2022-11-04T20:48:59.722Z,20.33
2022-11-04T20:51:31.915Z,13.45
2022-11-04T20:54:03.950Z,12.57
2022-11-04T20:56:35.095Z,11.32
2022-11-04T20:59:06.695Z,12.02
2022-11-04T21:01:38.458Z,11.55
2022-11-04T21:04:11.647Z,11.27
2022-11-04T21:06:42.987Z,10.02
2022-11-04T21:09:15.916Z,10.70
2022-11-04T21:11:45.842Z,10.27
2022-11-04T21:14:17.452Z,9.85
2022-11-04T21:16:47.053Z,10.38
2022-11-04T21:19:17.395Z,10.05
2022-11-04T21:21:48.691Z,9.60
2022-11-04T21:24:18.834Z,10.13
2022-11-04T21:26:49.355Z,8.55
2022-11-04T21:31:50.096Z,9.43
2022-11-04T21:34:19.865Z,9.90
2022-11-04T21:36:54.117Z,10.43
2022-11-04T21:39:23.859Z,17.05
2022-11-04T21:41:53.133Z,13.52
2022-11-04T21:44:24.148Z,11.32
2022-11-04T21:46:53.557Z,11.52
2022-11-04T21:49:23.419Z,9.70
2022-11-04T21:51:54.154Z,8.52
2022-11-04T21:54:27.537Z,8.45
2022-11-04T21:56:56.803Z,8.85
2022-11-04T21:59:26.736Z,9.85
2022-11-04T22:01:56.047Z,8.75
2022-11-04T22:04:27.526Z,8.77
2022-11-04T22:06:58.312Z,8.25
2022-11-04T22:09:28.180Z,8.30
2022-11-04T22:11:57.427Z,9.30
2022-11-04T22:14:28.571Z,8.40
2022-11-04T22:16:58.081Z,8.95
2022-11-04T22:19:28.207Z,8.70
2022-11-04T22:21:58.950Z,9.50
2022-11-04T22:24:28.941Z,10.20
2022-11-04T22:26:58.416Z,8.77
2022-11-04T22:29:28.418Z,8.63
2022-11-04T22:31:57.883Z,8.68
2022-11-04T22:34:27.979Z,9.55
2022-11-04T22:36:58.718Z,7.88
2022-11-04T22:39:28.536Z,8.07
2022-11-04T22:41:57.813Z,7.40
2022-11-04T22:44:27.916Z,8.95
2022-11-04T22:46:57.232Z,8.07
2022-11-04T22:49:27.312Z,8.30
2022-11-04T22:51:58.125Z,8.25
2022-11-04T22:54:28.561Z,8.77
2022-11-04T22:56:58.094Z,8.80
2022-11-04T22:59:28.175Z,8.13
2022-11-04T23:01:57.773Z,9.32
2022-11-04T23:04:27.766Z,8.87
2022-11-04T23:06:58.532Z,7.70
2022-11-04T23:09:28.972Z,8.82
2022-11-04T23:12:14.764Z,8.63
2022-11-04T23:15:02.245Z,8.43
2022-11-04T23:17:49.058Z,9.90
2022-11-04T23:20:18.968Z,9.30
2022-11-04T23:23:07.047Z,9.38
2022-11-04T23:25:37.211Z,8.27
2022-11-04T23:28:23.998Z,9.10
2022-11-04T23:30:53.947Z,8.50
2022-11-04T23:33:43.530Z,7.85
2022-11-04T23:36:30.305Z,8.25
2022-11-04T23:39:01.031Z,8.35
2022-11-04T23:41:48.528Z,8.40
2022-11-04T23:44:31.545Z,6.97
2022-11-04T23:47:18.716Z,8.52
2022-11-04T23:50:05.132Z,8.68
2022-11-04T23:52:51.924Z,8.88
2022-11-04T23:55:39.723Z,9.05
2022-11-04T23:58:27.964Z,7.65
